Time;durP1;ratioP1;P1;durP2;ratioP2;P2;SDS_P1;SDS_P2;PMS_P1;PMS_P2;Temp;Humidity;BMP_temperature;BMP_pressure;BME280_temperature;BME280_humidity;BME280_pressure;Samples;Min_cycle;Max_cycle;Signal;HPM_P1;HPM_P2
2021/06/06 00:00:36;;;;;;;65.57;48.35;;;;;;;;;;2052031;28;20225;-64
2021/06/06 00:01:41;;;;;;;61.45;47.05;;;;;;;;;;2048723;28;20561;-65
2021/06/06 00:02:41;;;;;;;64.78;45.50;;;;;;;;;;2049564;28;20246;-64
2021/06/06 00:03:43;;;;;;;67.80;48.25;;;;;;;;;;2047726;29;20593;-65
2021/06/06 00:04:44;;;;;;;64.43;45.90;;;;;;;;;;2049611;29;20222;-65
2021/06/06 00:05:52;;;;;;;70.22;49.17;;;;;;;;;;2049476;28;20175;-64
2021/06/06 00:06:52;;;;;;;67.93;48.53;;;;;;;;;;2048553;29;20230;-65
2021/06/06 00:07:53;;;;;;;69.35;48.38;;;;;;;;;;2048272;29;20280;-63
2021/06/06 00:08:53;;;;;;;72.68;48.28;;;;;;;;;;2049134;29;20225;-64
2021/06/06 00:09:54;;;;;;;74.20;51.28;;;;;;;;;;2049464;29;20162;-63
2021/06/06 00:10:56;;;;;;;72.72;51.58;;;;;;;;;;2049305;29;20171;-66
2021/06/06 00:11:56;;;;;;;71.93;50.95;;;;;;;;;;2049513;29;20167;-63
2021/06/06 00:12:57;;;;;;;75.80;51.92;;;;;;;;;;2045452;29;20178;-63
2021/06/06 00:13:58;;;;;;;74.25;53.17;;;;;;;;;;2041077;29;20267;-64
2021/06/06 00:14:58;;;;;;;74.95;50.83;;;;;;;;;;2041581;29;20219;-65
2021/06/06 00:15:59;;;;;;;75.68;52.05;;;;;;;;;;2040769;29;20646;-65
2021/06/06 00:17:01;;;;;;;76.57;52.15;;;;;;;;;;2040810;29;20167;-66
2021/06/06 00:18:02;;;;;;;79.63;53.55;;;;;;;;;;2040584;29;20182;-68
2021/06/06 00:19:03;;;;;;;76.95;52.58;;;;;;;;;;2040848;29;20196;-65
2021/06/06 00:20:04;;;;;;;79.43;52.50;;;;;;;;;;2041303;29;20576;-64
2021/06/06 00:21:04;;;;;;;77.00;52.85;;;;;;;;;;2040745;29;20218;-65
2021/06/06 00:22:05;;;;;;;79.00;54.80;;;;;;;;;;2040608;29;20180;-65
2021/06/06 00:23:06;;;;;;;81.38;54.08;;;;;;;;;;2041339;29;20624;-65
2021/06/06 00:24:08;;;;;;;80.38;54.58;;;;;;;;;;2040755;29;20204;-65
2021/06/06 00:25:10;;;;;;;86.13;54.92;;;;;;;;;;2040644;29;20164;-65
2021/06/06 00:26:10;;;;;;;93.93;56.63;;;;;;;;;;2040533;29;20254;-65
2021/06/06 00:27:11;;;;;;;80.68;57.05;;;;;;;;;;2043027;29;20174;-65
2021/06/06 00:28:12;;;;;;;88.53;56.08;;;;;;;;;;2048895;29;20640;-65
2021/06/06 00:29:12;;;;;;;84.00;56.53;;;;;;;;;;2048736;29;20155;-65
2021/06/06 00:30:13;;;;;;;86.03;56.05;;;;;;;;;;2048606;29;20163;-65
2021/06/06 00:31:14;;;;;;;84.30;54.92;;;;;;;;;;2047190;28;20175;-64
2021/06/06 00:32:14;;;;;;;83.07;54.35;;;;;;;;;;2047374;28;20223;-66
2021/06/06 00:33:15;;;;;;;82.18;57.03;;;;;;;;;;2045146;29;20250;-64
2021/06/06 00:34:15;;;;;;;84.35;55.55;;;;;;;;;;2026147;29;20185;-64
2021/06/06 00:35:16;;;;;;;82.30;56.88;;;;;;;;;;2028405;29;20273;-64
2021/06/06 00:36:17;;;;;;;80.63;55.97;;;;;;;;;;2033069;29;20220;-64
2021/06/06 00:37:17;;;;;;;86.85;56.58;;;;;;;;;;2037667;29;20172;-65
2021/06/06 00:38:18;;;;;;;87.38;58.95;;;;;;;;;;2047289;28;20609;-64
2021/06/06 00:39:18;;;;;;;90.53;59.25;;;;;;;;;;2040048;29;20604;-65
2021/06/06 00:40:24;;;;;;;88.90;59.15;;;;;;;;;;2039594;28;20179;-64
2021/06/06 00:41:26;;;;;;;85.82;55.45;;;;;;;;;;2047930;29;20191;-65
2021/06/06 00:42:30;;;;;;;77.97;56.08;;;;;;;;;;2046034;29;20211;-64
2021/06/06 00:43:34;;;;;;;84.28;56.55;;;;;;;;;;2047442;29;20174;-64
2021/06/06 00:44:35;;;;;;;85.57;56.40;;;;;;;;;;2044914;29;20166;-65
2021/06/06 00:45:38;;;;;;;85.93;57.70;;;;;;;;;;2046061;29;20170;-64
2021/06/06 00:46:38;;;;;;;88.47;56.83;;;;;;;;;;2048465;29;20174;-67
2021/06/06 00:47:39;;;;;;;90.10;60.42;;;;;;;;;;2048270;29;20275;-64
2021/06/06 00:48:41;;;;;;;88.00;57.38;;;;;;;;;;2037837;29;20282;-65
2021/06/06 00:49:42;;;;;;;80.18;55.17;;;;;;;;;;2053450;28;20635;-64
2021/06/06 00:50:44;;;;;;;90.47;55.42;;;;;;;;;;2056173;28;20175;-64
2021/06/06 00:51:51;;;;;;;80.93;55.85;;;;;;;;;;2047926;29;20610;-63
2021/06/06 00:52:53;;;;;;;81.65;56.05;;;;;;;;;;2040648;29;20175;-65
2021/06/06 00:54:13;;;;;;;78.80;55.58;;;;;;;;;;2046637;29;20190;-65
2021/06/06 00:55:13;;;;;;;80.78;55.50;;;;;;;;;;2042547;29;20190;-65
2021/06/06 00:56:17;;;;;;;78.47;55.47;;;;;;;;;;2048046;29;20222;-63
2021/06/06 00:57:22;;;;;;;84.60;57.22;;;;;;;;;;2044861;29;20262;-64
2021/06/06 00:58:29;;;;;;;83.60;55.72;;;;;;;;;;2038065;29;20175;-64
2021/06/06 00:59:31;;;;;;;77.95;52.78;;;;;;;;;;2040163;29;20171;-64
2021/06/06 01:00:38;;;;;;;78.97;54.80;;;;;;;;;;2046120;29;20241;-65
2021/06/06 01:01:38;;;;;;;81.57;56.22;;;;;;;;;;2047688;29;20191;-65
2021/06/06 01:02:40;;;;;;;84.75;54.72;;;;;;;;;;2048050;29;20272;-65
2021/06/06 01:03:41;;;;;;;79.30;53.63;;;;;;;;;;2047773;29;20270;-65
2021/06/06 01:04:43;;;;;;;75.85;54.13;;;;;;;;;;2045046;29;20168;-64
2021/06/06 01:05:55;;;;;;;79.45;56.95;;;;;;;;;;2045698;29;20171;-65
2021/06/06 01:06:56;;;;;;;78.70;54.38;;;;;;;;;;2048334;29;20155;-64
2021/06/06 01:08:04;;;;;;;80.40;51.70;;;;;;;;;;2040420;29;20270;-64
2021/06/06 01:09:06;;;;;;;73.07;53.92;;;;;;;;;;2044890;29;20707;-64
2021/06/06 01:10:08;;;;;;;71.57;50.25;;;;;;;;;;2049313;28;20162;-65
2021/06/06 01:11:17;;;;;;;67.22;51.10;;;;;;;;;;2053738;28;20205;-64
2021/06/06 01:12:26;;;;;;;77.07;51.97;;;;;;;;;;2049065;29;20330;-64
2021/06/06 01:13:54;;;;;;;66.63;48.85;;;;;;;;;;2045950;29;20158;-64
2021/06/06 01:15:07;;;;;;;67.47;48.30;;;;;;;;;;2049177;29;20186;-64
2021/06/06 01:16:18;;;;;;;71.28;50.60;;;;;;;;;;2043445;29;20659;-65
2021/06/06 01:17:18;;;;;;;68.47;49.60;;;;;;;;;;2041302;29;20190;-65
2021/06/06 01:18:25;;;;;;;66.72;50.72;;;;;;;;;;2041399;29;20168;-65
2021/06/06 01:19:33;;;;;;;68.57;51.38;;;;;;;;;;2057118;28;20177;-65
2021/06/06 01:20:33;;;;;;;75.65;52.03;;;;;;;;;;2055490;28;20321;-65
2021/06/06 01:21:34;;;;;;;71.43;50.33;;;;;;;;;;2049797;28;20273;-64
2021/06/06 01:22:56;;;;;;;72.00;50.78;;;;;;;;;;2048717;29;20255;-64
2021/06/06 01:24:15;;;;;;;67.53;50.25;;;;;;;;;;2043539;29;20211;-64
2021/06/06 01:25:20;;;;;;;67.00;50.03;;;;;;;;;;2039889;29;20688;-66
2021/06/06 01:26:32;;;;;;;66.25;50.42;;;;;;;;;;2023846;29;20628;-65
2021/06/06 01:27:35;;;;;;;67.28;51.33;;;;;;;;;;2044821;28;20640;-63
2021/06/06 01:28:39;;;;;;;67.18;50.58;;;;;;;;;;2053734;28;20182;-64
2021/06/06 01:29:45;;;;;;;69.50;50.80;;;;;;;;;;2048763;29;20624;-65
2021/06/06 01:30:49;;;;;;;64.15;47.42;;;;;;;;;;2048611;28;20263;-64
2021/06/06 01:31:53;;;;;;;66.35;49.15;;;;;;;;;;2056908;28;20635;-64
2021/06/06 01:33:01;;;;;;;70.35;49.67;;;;;;;;;;2056720;28;20178;-64
2021/06/06 01:34:02;;;;;;;70.93;48.85;;;;;;;;;;2041988;29;20202;-64
2021/06/06 01:35:11;;;;;;;72.53;50.47;;;;;;;;;;2049550;28;20163;-65
2021/06/06 01:36:18;;;;;;;75.78;51.20;;;;;;;;;;2049447;28;20183;-64
2021/06/06 01:37:21;;;;;;;68.25;51.03;;;;;;;;;;2048872;28;20206;-65
2021/06/06 01:38:25;;;;;;;73.57;52.45;;;;;;;;;;2048981;29;20191;-65
2021/06/06 01:39:30;;;;;;;65.18;48.40;;;;;;;;;;2044812;29;20626;-65
2021/06/06 01:40:33;;;;;;;67.78;50.25;;;;;;;;;;2046451;29;20723;-64
2021/06/06 01:41:37;;;;;;;72.78;51.75;;;;;;;;;;2038001;29;20568;-65
2021/06/06 01:42:43;;;;;;;73.55;51.97;;;;;;;;;;2039254;29;20282;-64
2021/06/06 01:43:50;;;;;;;66.78;49.78;;;;;;;;;;2046469;29;20321;-65
2021/06/06 01:44:53;;;;;;;69.93;50.03;;;;;;;;;;2044555;29;20273;-65
2021/06/06 01:45:57;;;;;;;66.85;48.70;;;;;;;;;;2040930;29;20171;-65
2021/06/06 01:47:01;;;;;;;66.95;49.35;;;;;;;;;;2049367;29;20175;-65
2021/06/06 01:48:07;;;;;;;65.40;49.25;;;;;;;;;;2046199;29;20659;-65
2021/06/06 01:49:13;;;;;;;64.30;47.70;;;;;;;;;;2040953;29;20255;-65
2021/06/06 01:50:25;;;;;;;66.00;48.88;;;;;;;;;;2049510;29;20199;-65
2021/06/06 01:51:29;;;;;;;67.97;49.78;;;;;;;;;;2047064;29;20592;-65
2021/06/06 01:52:32;;;;;;;64.43;48.50;;;;;;;;;;2041850;29;20558;-65
2021/06/06 01:53:36;;;;;;;63.97;46.42;;;;;;;;;;2032658;29;20172;-65
2021/06/06 01:54:37;;;;;;;60.92;45.95;;;;;;;;;;2041258;29;20205;-65
2021/06/06 01:55:43;;;;;;;63.47;46.15;;;;;;;;;;2049350;28;20534;-65
2021/06/06 01:56:48;;;;;;;66.70;47.97;;;;;;;;;;2047891;28;20179;-65
2021/06/06 01:57:51;;;;;;;65.63;48.75;;;;;;;;;;2040028;29;20211;-65
2021/06/06 01:58:58;;;;;;;65.68;47.05;;;;;;;;;;2041691;29;20195;-64
2021/06/06 02:00:08;;;;;;;65.47;46.55;;;;;;;;;;2048776;29;20179;-65
2021/06/06 02:01:20;;;;;;;62.28;47.13;;;;;;;;;;2049022;28;20214;-65
2021/06/06 02:02:23;;;;;;;65.65;48.35;;;;;;;;;;2049349;29;20225;-65
2021/06/06 02:03:24;;;;;;;60.90;45.95;;;;;;;;;;2048651;29;20221;-65
2021/06/06 02:04:27;;;;;;;60.25;44.88;;;;;;;;;;2047891;29;20186;-64
2021/06/06 02:05:28;;;;;;;56.72;44.67;;;;;;;;;;2048878;29;20167;-64
2021/06/06 02:06:34;;;;;;;61.08;45.65;;;;;;;;;;2048645;29;20167;-65
2021/06/06 02:07:38;;;;;;;59.45;45.78;;;;;;;;;;2047749;29;20186;-65
2021/06/06 02:08:42;;;;;;;62.42;46.38;;;;;;;;;;2046845;29;20167;-65
2021/06/06 02:10:09;;;;;;;61.45;46.17;;;;;;;;;;2047107;29;20175;-64
2021/06/06 02:11:11;;;;;;;65.38;47.85;;;;;;;;;;2037503;29;20175;-65
2021/06/06 02:12:11;;;;;;;66.75;47.30;;;;;;;;;;2033491;29;20234;-65
2021/06/06 02:13:26;;;;;;;62.85;45.83;;;;;;;;;;2035899;29;20287;-62
2021/06/06 02:14:28;;;;;;;66.20;47.60;;;;;;;;;;2048637;29;20270;-65
2021/06/06 02:15:37;;;;;;;61.22;46.70;;;;;;;;;;2049095;29;20572;-65
2021/06/06 02:16:47;;;;;;;65.15;46.58;;;;;;;;;;2042564;29;20180;-65
2021/06/06 02:18:04;;;;;;;62.97;46.15;;;;;;;;;;2046459;29;20172;-65
2021/06/06 02:19:07;;;;;;;61.47;44.30;;;;;;;;;;2041541;29;20676;-65
2021/06/06 02:20:13;;;;;;;64.43;47.13;;;;;;;;;;2041584;29;20196;-65
2021/06/06 02:21:17;;;;;;;62.28;47.40;;;;;;;;;;2040262;29;20200;-64
2021/06/06 02:22:18;;;;;;;63.10;47.03;;;;;;;;;;2034238;29;20208;-65
2021/06/06 02:23:21;;;;;;;62.00;47.58;;;;;;;;;;2041225;29;20200;-65
2021/06/06 02:24:21;;;;;;;63.50;45.78;;;;;;;;;;2033736;29;20171;-64
2021/06/06 02:25:23;;;;;;;62.50;45.75;;;;;;;;;;2041523;29;20168;-65
2021/06/06 02:26:26;;;;;;;59.00;45.17;;;;;;;;;;2049197;29;20179;-65
2021/06/06 02:27:34;;;;;;;59.00;44.80;;;;;;;;;;2041360;29;20270;-65
2021/06/06 02:28:39;;;;;;;62.85;46.63;;;;;;;;;;2048311;29;20651;-65
2021/06/06 02:29:42;;;;;;;61.83;45.25;;;;;;;;;;2049487;29;20256;-65
2021/06/06 02:30:58;;;;;;;55.63;42.20;;;;;;;;;;2049508;29;20175;-64
2021/06/06 02:32:01;;;;;;;52.50;41.25;;;;;;;;;;2049445;29;20257;-65
2021/06/06 02:33:08;;;;;;;56.65;42.30;;;;;;;;;;2049849;29;20167;-65
2021/06/06 02:34:28;;;;;;;52.78;39.60;;;;;;;;;;2049583;29;20237;-64
2021/06/06 02:35:47;;;;;;;53.58;40.58;;;;;;;;;;2049891;29;20159;-65
2021/06/06 02:36:50;;;;;;;53.00;41.38;;;;;;;;;;2050033;29;20193;-65
2021/06/06 02:37:58;;;;;;;51.03;41.65;;;;;;;;;;2048033;29;20171;-64
2021/06/06 02:39:08;;;;;;;58.63;42.95;;;;;;;;;;2042498;29;20163;-65
2021/06/06 02:40:25;;;;;;;58.53;43.33;;;;;;;;;;2041288;29;20842;-65
2021/06/06 02:41:29;;;;;;;52.70;41.58;;;;;;;;;;2041225;29;20685;-65
2021/06/06 02:42:40;;;;;;;52.63;40.30;;;;;;;;;;2041417;29;20567;-64
2021/06/06 02:43:44;;;;;;;57.42;43.35;;;;;;;;;;2042217;29;20171;-65
2021/06/06 02:44:51;;;;;;;52.47;41.70;;;;;;;;;;2049125;29;20175;-64
2021/06/06 02:45:57;;;;;;;53.17;41.10;;;;;;;;;;2041447;29;20167;-64
2021/06/06 02:46:59;;;;;;;54.05;41.85;;;;;;;;;;2041630;29;20183;-64
2021/06/06 02:48:10;;;;;;;51.67;40.28;;;;;;;;;;2043332;29;21959;-65
2021/06/06 02:49:16;;;;;;;50.65;40.47;;;;;;;;;;2049470;29;20194;-64
2021/06/06 02:50:22;;;;;;;54.55;41.30;;;;;;;;;;2049252;29;20187;-64
2021/06/06 02:51:23;;;;;;;53.40;40.88;;;;;;;;;;2050003;29;20242;-64
2021/06/06 02:52:38;;;;;;;53.83;41.25;;;;;;;;;;2049173;29;20191;-65
2021/06/06 02:53:49;;;;;;;52.60;40.72;;;;;;;;;;2048877;29;20167;-64
2021/06/06 02:54:56;;;;;;;49.95;40.05;;;;;;;;;;2042305;28;20644;-65
2021/06/06 02:56:12;;;;;;;51.15;39.85;;;;;;;;;;2049747;28;20171;-65
2021/06/06 02:57:14;;;;;;;56.33;43.60;;;;;;;;;;2049016;28;20262;-64
2021/06/06 02:58:23;;;;;;;57.33;42.67;;;;;;;;;;2040841;29;20174;-65
2021/06/06 02:59:46;;;;;;;57.08;43.15;;;;;;;;;;2042556;29;20175;-64
2021/06/06 03:00:53;;;;;;;53.92;40.53;;;;;;;;;;2044563;29;20175;-65
2021/06/06 03:01:57;;;;;;;54.28;42.13;;;;;;;;;;2049403;29;20175;-65
2021/06/06 03:03:08;;;;;;;54.00;43.65;;;;;;;;;;2049169;29;20159;-62
2021/06/06 03:04:10;;;;;;;52.40;41.92;;;;;;;;;;2049583;29;20155;-64
2021/06/06 03:05:15;;;;;;;55.33;43.17;;;;;;;;;;2049860;29;20165;-65
2021/06/06 03:06:22;;;;;;;51.83;41.92;;;;;;;;;;2048032;29;20561;-65
2021/06/06 03:07:31;;;;;;;55.75;42.13;;;;;;;;;;2041454;29;20501;-64
2021/06/06 03:08:31;;;;;;;53.25;41.05;;;;;;;;;;2042089;29;20278;-64
2021/06/06 03:09:31;;;;;;;59.40;43.10;;;;;;;;;;2046079;29;20182;-64
2021/06/06 03:10:35;;;;;;;57.15;41.53;;;;;;;;;;2056796;28;20173;-65
2021/06/06 03:11:39;;;;;;;54.78;42.00;;;;;;;;;;2050485;28;20171;-64
2021/06/06 03:12:46;;;;;;;58.13;43.47;;;;;;;;;;2041784;29;20191;-65
2021/06/06 03:13:51;;;;;;;57.33;42.90;;;;;;;;;;2041594;29;20227;-65
2021/06/06 03:14:51;;;;;;;58.47;42.33;;;;;;;;;;2041733;29;20466;-65
2021/06/06 03:15:58;;;;;;;58.92;42.80;;;;;;;;;;2047862;29;20178;-65
2021/06/06 03:17:15;;;;;;;59.88;43.38;;;;;;;;;;2041720;29;20183;-65
2021/06/06 03:18:16;;;;;;;53.15;41.60;;;;;;;;;;2049068;28;20167;-65
2021/06/06 03:19:16;;;;;;;56.83;43.35;;;;;;;;;;2049366;28;20561;-64
2021/06/06 03:20:19;;;;;;;55.05;43.65;;;;;;;;;;2049030;29;20253;-64
2021/06/06 03:21:23;;;;;;;56.78;42.15;;;;;;;;;;2041284;29;20539;-64
2021/06/06 03:22:27;;;;;;;54.42;42.10;;;;;;;;;;2049432;28;20233;-64
2021/06/06 03:23:28;;;;;;;56.25;41.75;;;;;;;;;;2056331;28;20234;-63
2021/06/06 03:24:34;;;;;;;54.08;42.15;;;;;;;;;;2049029;29;20198;-63
2021/06/06 03:25:35;;;;;;;49.95;38.67;;;;;;;;;;2041906;29;20640;-64
2021/06/06 03:26:38;;;;;;;54.90;40.95;;;;;;;;;;2049160;29;20553;-64
2021/06/06 03:27:42;;;;;;;54.83;40.25;;;;;;;;;;2049720;28;20174;-64
2021/06/06 03:28:46;;;;;;;55.35;39.40;;;;;;;;;;2048358;29;20163;-64
2021/06/06 03:30:03;;;;;;;51.65;38.00;;;;;;;;;;2049021;28;20198;-63
2021/06/06 03:31:10;;;;;;;49.85;38.63;;;;;;;;;;2049094;29;20154;-64
2021/06/06 03:32:13;;;;;;;47.70;37.03;;;;;;;;;;2048606;28;20191;-64
2021/06/06 03:33:15;;;;;;;47.85;37.10;;;;;;;;;;2049109;29;20167;-64
2021/06/06 03:34:15;;;;;;;50.35;36.95;;;;;;;;;;2048585;28;20170;-64
2021/06/06 03:35:22;;;;;;;49.33;37.67;;;;;;;;;;2049008;29;20163;-64
2021/06/06 03:36:26;;;;;;;47.22;34.85;;;;;;;;;;2048906;29;20167;-63
2021/06/06 03:37:28;;;;;;;45.90;36.50;;;;;;;;;;2049541;28;20178;-63
2021/06/06 03:38:31;;;;;;;45.70;36.13;;;;;;;;;;2051587;28;20254;-64
2021/06/06 03:39:32;;;;;;;48.03;37.22;;;;;;;;;;2041048;29;20170;-64
2021/06/06 03:40:38;;;;;;;48.83;37.45;;;;;;;;;;2032932;28;20183;-63
2021/06/06 03:41:50;;;;;;;48.63;34.50;;;;;;;;;;2045736;29;20194;-66
2021/06/06 03:42:52;;;;;;;44.65;35.60;;;;;;;;;;2046568;28;20198;-63
2021/06/06 03:43:52;;;;;;;52.17;38.45;;;;;;;;;;2048219;29;20179;-64
2021/06/06 03:44:53;;;;;;;49.83;38.50;;;;;;;;;;2041442;28;20183;-64
2021/06/06 03:45:57;;;;;;;48.45;35.22;;;;;;;;;;2040340;29;20786;-64
2021/06/06 03:47:03;;;;;;;50.38;37.45;;;;;;;;;;2038605;29;20163;-63
2021/06/06 03:48:07;;;;;;;49.70;38.20;;;;;;;;;;2048678;29;20182;-63
2021/06/06 03:49:11;;;;;;;47.67;36.13;;;;;;;;;;2047960;29;20163;-64
2021/06/06 03:50:14;;;;;;;49.92;39.22;;;;;;;;;;2045701;29;20167;-63
2021/06/06 03:51:16;;;;;;;52.65;38.00;;;;;;;;;;2048834;29;20270;-64
2021/06/06 03:52:16;;;;;;;51.90;37.58;;;;;;;;;;2040500;29;20206;-64
2021/06/06 03:53:18;;;;;;;48.75;37.40;;;;;;;;;;2040307;29;20182;-63
2021/06/06 03:54:19;;;;;;;48.67;36.88;;;;;;;;;;2048551;29;20234;-64
2021/06/06 03:55:21;;;;;;;46.65;35.03;;;;;;;;;;2048693;29;20187;-64
2021/06/06 03:56:24;;;;;;;46.97;36.40;;;;;;;;;;2036601;29;20235;-64
2021/06/06 03:57:26;;;;;;;51.67;38.85;;;;;;;;;;2044377;29;20263;-64
2021/06/06 03:58:28;;;;;;;53.90;38.78;;;;;;;;;;2047997;29;20214;-63
2021/06/06 03:59:28;;;;;;;53.17;38.70;;;;;;;;;;2048329;29;20226;-64
2021/06/06 04:00:34;;;;;;;50.67;38.38;;;;;;;;;;2048881;29;20171;-64
2021/06/06 04:01:38;;;;;;;49.65;37.58;;;;;;;;;;2048488;29;20200;-64
2021/06/06 04:02:38;;;;;;;48.75;35.15;;;;;;;;;;2049438;28;20202;-64
2021/06/06 04:03:39;;;;;;;47.10;36.30;;;;;;;;;;2047251;28;20646;-63
2021/06/06 04:04:41;;;;;;;48.13;35.85;;;;;;;;;;2046281;29;20676;-64
2021/06/06 04:05:42;;;;;;;49.80;35.63;;;;;;;;;;2046144;29;20199;-64
2021/06/06 04:06:43;;;;;;;45.40;34.85;;;;;;;;;;2046179;29;20171;-64
2021/06/06 04:07:44;;;;;;;46.28;35.30;;;;;;;;;;2045650;29;20210;-64
2021/06/06 04:08:46;;;;;;;51.28;37.25;;;;;;;;;;2046798;29;20202;-64
2021/06/06 04:09:50;;;;;;;49.08;36.42;;;;;;;;;;2043924;29;20167;-64
2021/06/06 04:10:52;;;;;;;47.35;36.25;;;;;;;;;;2048219;29;20230;-63
2021/06/06 04:11:52;;;;;;;46.90;35.47;;;;;;;;;;2047997;29;20273;-64
2021/06/06 04:12:53;;;;;;;47.85;35.60;;;;;;;;;;2040270;29;20179;-64
2021/06/06 04:13:56;;;;;;;47.53;35.55;;;;;;;;;;2045677;29;20250;-64
2021/06/06 04:15:00;;;;;;;48.25;36.00;;;;;;;;;;2041802;29;20176;-64
2021/06/06 04:16:02;;;;;;;43.70;33.10;;;;;;;;;;2043626;29;20172;-64
2021/06/06 04:17:03;;;;;;;45.05;34.65;;;;;;;;;;2044137;29;20691;-64
2021/06/06 04:18:14;;;;;;;47.22;35.83;;;;;;;;;;2047786;29;20269;-64
2021/06/06 04:19:16;;;;;;;46.17;35.38;;;;;;;;;;2050246;28;20177;-60
2021/06/06 04:20:18;;;;;;;48.25;35.08;;;;;;;;;;2048786;29;20210;-65
2021/06/06 04:21:21;;;;;;;46.10;33.63;;;;;;;;;;2049330;29;20202;-64
2021/06/06 04:22:22;;;;;;;45.05;36.00;;;;;;;;;;2048864;28;20210;-65
2021/06/06 04:23:22;;;;;;;42.67;33.53;;;;;;;;;;2045283;29;20270;-64
2021/06/06 04:24:23;;;;;;;43.40;34.08;;;;;;;;;;2041132;29;20164;-64
2021/06/06 04:25:27;;;;;;;45.28;32.60;;;;;;;;;;2037259;29;20178;-64
2021/06/06 04:26:28;;;;;;;45.45;33.72;;;;;;;;;;2044571;29;20706;-64
2021/06/06 04:27:30;;;;;;;43.45;32.75;;;;;;;;;;2046570;29;20166;-64
2021/06/06 04:28:33;;;;;;;41.60;32.15;;;;;;;;;;2043799;29;20261;-64
2021/06/06 04:29:39;;;;;;;46.72;34.00;;;;;;;;;;2046729;29;20163;-64
2021/06/06 04:30:41;;;;;;;44.10;32.72;;;;;;;;;;2049242;29;20199;-65
2021/06/06 04:31:43;;;;;;;38.90;31.80;;;;;;;;;;2048829;29;20226;-64
2021/06/06 04:32:49;;;;;;;40.83;33.10;;;;;;;;;;2041833;29;20289;-64
2021/06/06 04:33:50;;;;;;;39.92;29.58;;;;;;;;;;2041186;29;20664;-64
2021/06/06 04:34:52;;;;;;;43.17;31.75;;;;;;;;;;2048580;28;20175;-64
2021/06/06 04:35:54;;;;;;;38.53;29.92;;;;;;;;;;2043286;29;20175;-65
2021/06/06 04:36:54;;;;;;;37.50;29.15;;;;;;;;;;2036151;29;20627;-65
2021/06/06 04:37:58;;;;;;;42.92;31.58;;;;;;;;;;2035147;29;20207;-64
2021/06/06 04:38:59;;;;;;;39.38;31.02;;;;;;;;;;2040490;29;20266;-65
2021/06/06 04:40:08;;;;;;;38.97;30.98;;;;;;;;;;2035528;29;20597;-64
2021/06/06 04:41:11;;;;;;;41.30;30.77;;;;;;;;;;2047986;29;20534;-66
2021/06/06 04:42:17;;;;;;;39.38;30.38;;;;;;;;;;2074348;23;20213;-58
2021/06/06 04:43:18;;;;;;;38.47;31.90;;;;;;;;;;2038382;29;20314;-57
2021/06/06 04:44:19;;;;;;;37.33;29.27;;;;;;;;;;2038133;29;20207;-55
2021/06/06 04:45:22;;;;;;;38.58;30.20;;;;;;;;;;2031671;29;20169;-54
2021/06/06 04:46:22;;;;;;;38.25;29.80;;;;;;;;;;2037136;29;20227;-52
2021/06/06 04:47:23;;;;;;;40.33;30.63;;;;;;;;;;2047656;29;20170;-54
2021/06/06 04:48:38;;;;;;;35.38;27.67;;;;;;;;;;2036717;29;20857;-56
2021/06/06 04:49:39;;;;;;;36.85;29.25;;;;;;;;;;2045049;29;20262;-53
2021/06/06 04:50:40;;;;;;;34.05;28.75;;;;;;;;;;2042959;29;20182;-53
2021/06/06 04:51:42;;;;;;;34.53;27.55;;;;;;;;;;2040240;29;20187;-57
2021/06/06 04:52:49;;;;;;;34.35;27.80;;;;;;;;;;2040490;29;20212;-54
2021/06/06 04:53:50;;;;;;;33.63;27.20;;;;;;;;;;2041951;29;20199;-54
2021/06/06 04:54:54;;;;;;;34.58;27.92;;;;;;;;;;2049133;29;20179;-54
2021/06/06 04:55:59;;;;;;;33.10;26.30;;;;;;;;;;2049265;29;20247;-55
2021/06/06 04:57:04;;;;;;;33.17;27.40;;;;;;;;;;2035956;29;20191;-55
2021/06/06 04:58:10;;;;;;;32.85;26.45;;;;;;;;;;2041362;29;20176;-56
2021/06/06 04:59:12;;;;;;;33.00;27.70;;;;;;;;;;2040628;29;20223;-52
2021/06/06 05:00:17;;;;;;;33.17;27.30;;;;;;;;;;2039971;29;20195;-55
2021/06/06 05:01:20;;;;;;;33.00;27.20;;;;;;;;;;2039951;29;20283;-52
2021/06/06 05:02:24;;;;;;;31.90;27.67;;;;;;;;;;2047778;28;20286;-56
2021/06/06 05:03:31;;;;;;;31.25;27.42;;;;;;;;;;2036151;29;20178;-55
2021/06/06 05:04:33;;;;;;;32.42;27.42;;;;;;;;;;2033193;29;20204;-54
2021/06/06 05:05:36;;;;;;;31.02;26.95;;;;;;;;;;2031808;29;20165;-54
2021/06/06 05:06:36;;;;;;;27.90;24.92;;;;;;;;;;2037407;29;20181;-56
2021/06/06 05:07:39;;;;;;;28.73;24.67;;;;;;;;;;2037758;29;20187;-55
2021/06/06 05:08:40;;;;;;;29.88;25.67;;;;;;;;;;2038619;29;20180;-52
2021/06/06 05:09:41;;;;;;;28.75;25.30;;;;;;;;;;2038025;29;20655;-54
2021/06/06 05:10:44;;;;;;;30.38;25.58;;;;;;;;;;2029342;29;20191;-55
2021/06/06 05:11:46;;;;;;;30.88;26.30;;;;;;;;;;2030041;29;20180;-54
2021/06/06 05:12:48;;;;;;;30.67;26.05;;;;;;;;;;2032232;29;20282;-54
2021/06/06 05:13:49;;;;;;;33.40;27.40;;;;;;;;;;2039677;29;20649;-54
2021/06/06 05:14:49;;;;;;;31.65;26.13;;;;;;;;;;2036428;29;20180;-55
2021/06/06 05:15:51;;;;;;;30.23;25.73;;;;;;;;;;2031498;29;20168;-54
2021/06/06 05:16:53;;;;;;;30.35;25.63;;;;;;;;;;2039736;29;20203;-56
2021/06/06 05:17:54;;;;;;;33.40;27.80;;;;;;;;;;2040741;29;20230;-54
2021/06/06 05:18:56;;;;;;;31.63;26.70;;;;;;;;;;2036041;29;20184;-55
2021/06/06 05:19:56;;;;;;;28.65;25.67;;;;;;;;;;2039989;29;20602;-57
2021/06/06 05:20:57;;;;;;;28.15;24.88;;;;;;;;;;2039742;29;20171;-54
2021/06/06 05:21:58;;;;;;;29.08;25.95;;;;;;;;;;2040215;29;20779;-56
2021/06/06 05:22:59;;;;;;;32.08;26.77;;;;;;;;;;2032110;29;20183;-56
2021/06/06 05:24:03;;;;;;;32.63;26.63;;;;;;;;;;2039818;29;20239;-55
2021/06/06 05:25:08;;;;;;;33.30;27.70;;;;;;;;;;2040035;29;20236;-58
2021/06/06 05:26:08;;;;;;;33.75;28.30;;;;;;;;;;2041131;29;20651;-55
2021/06/06 05:27:11;;;;;;;34.08;26.83;;;;;;;;;;2040872;29;20192;-54
2021/06/06 05:28:14;;;;;;;31.10;26.80;;;;;;;;;;2040791;29;20652;-57
2021/06/06 05:29:14;;;;;;;32.47;26.88;;;;;;;;;;2036235;29;20263;-56
2021/06/06 05:30:21;;;;;;;30.35;26.15;;;;;;;;;;2032834;29;20183;-53
2021/06/06 05:31:21;;;;;;;32.53;26.42;;;;;;;;;;2040543;29;20171;-54
2021/06/06 05:32:22;;;;;;;36.08;27.88;;;;;;;;;;2041330;29;20655;-57
2021/06/06 05:33:22;;;;;;;32.80;27.85;;;;;;;;;;2041083;29;20171;-56
2021/06/06 05:34:22;;;;;;;34.25;28.67;;;;;;;;;;2032418;29;20582;-57
2021/06/06 05:35:24;;;;;;;35.10;29.13;;;;;;;;;;2032746;29;20574;-53
2021/06/06 05:36:25;;;;;;;31.95;27.50;;;;;;;;;;2041010;29;20172;-53
2021/06/06 05:37:25;;;;;;;33.25;27.58;;;;;;;;;;2041170;29;20186;-54
2021/06/06 05:38:26;;;;;;;34.40;28.38;;;;;;;;;;2040999;29;20178;-58
2021/06/06 05:39:26;;;;;;;33.35;27.63;;;;;;;;;;2040999;29;20172;-56
2021/06/06 05:40:28;;;;;;;32.83;26.85;;;;;;;;;;2041367;29;20278;-52
2021/06/06 05:41:28;;;;;;;37.30;28.55;;;;;;;;;;2040590;29;20294;-56
2021/06/06 05:42:29;;;;;;;35.55;27.52;;;;;;;;;;2040487;29;20223;-56
2021/06/06 05:43:29;;;;;;;34.50;27.95;;;;;;;;;;2038192;29;20192;-53
2021/06/06 05:44:29;;;;;;;33.58;27.00;;;;;;;;;;2030029;29;20180;-54
2021/06/06 05:45:30;;;;;;;35.47;27.15;;;;;;;;;;2043802;29;20308;-57
2021/06/06 05:46:30;;;;;;;33.17;26.77;;;;;;;;;;2039806;29;20255;-55
2021/06/06 05:47:31;;;;;;;29.92;26.02;;;;;;;;;;2045274;29;20183;-57
2021/06/06 05:48:31;;;;;;;31.27;25.30;;;;;;;;;;2045395;28;20171;-53
2021/06/06 05:49:31;;;;;;;33.17;26.85;;;;;;;;;;2039849;29;20247;-55
2021/06/06 05:50:42;;;;;;;31.73;26.25;;;;;;;;;;2050418;28;20174;-54
2021/06/06 05:52:02;;;;;;;28.45;24.60;;;;;;;;;;2043472;28;20231;-53
2021/06/06 05:53:04;;;;;;;30.23;25.65;;;;;;;;;;2039382;29;20190;-59
2021/06/06 05:54:04;;;;;;;31.75;26.02;;;;;;;;;;2038963;29;20703;-55
2021/06/06 05:55:06;;;;;;;30.83;25.23;;;;;;;;;;2040565;29;20176;-54
2021/06/06 05:56:07;;;;;;;34.72;27.65;;;;;;;;;;2036288;29;20235;-54
2021/06/06 05:57:07;;;;;;;35.00;27.73;;;;;;;;;;2041149;28;20176;-53
2021/06/06 05:58:07;;;;;;;33.90;27.08;;;;;;;;;;2037186;29;20194;-56
2021/06/06 05:59:08;;;;;;;34.90;27.65;;;;;;;;;;2041355;29;20167;-54
2021/06/06 06:00:11;;;;;;;37.60;29.65;;;;;;;;;;2042694;29;20226;-56
2021/06/06 06:01:13;;;;;;;35.85;27.38;;;;;;;;;;2040337;29;20207;-54
2021/06/06 06:02:13;;;;;;;36.22;29.10;;;;;;;;;;2041864;29;20254;-54
2021/06/06 06:03:14;;;;;;;38.22;29.27;;;;;;;;;;2039252;29;20187;-56
2021/06/06 06:04:15;;;;;;;38.22;30.13;;;;;;;;;;2038786;29;20222;-55
2021/06/06 06:05:17;;;;;;;38.53;31.50;;;;;;;;;;2032575;29;20173;-56
2021/06/06 06:06:17;;;;;;;42.92;31.60;;;;;;;;;;2036538;29;20183;-57
2021/06/06 06:07:17;;;;;;;42.92;33.50;;;;;;;;;;2042110;29;20183;-55
2021/06/06 06:08:21;;;;;;;45.28;34.42;;;;;;;;;;2045009;29;20198;-57
2021/06/06 06:09:21;;;;;;;41.10;32.22;;;;;;;;;;2040044;29;20222;-54
2021/06/06 06:10:24;;;;;;;45.70;34.58;;;;;;;;;;2050048;28;20194;-53
2021/06/06 06:11:25;;;;;;;42.33;33.67;;;;;;;;;;2043418;28;20204;-57